Startpagina
METAR-TAF:

METAR-TAF

Vliegvelden :

Larnaca, Cyprus

Luchthaven Larnaca

breedte: 34-53N, lengte: 033-38E, hoogte: 2 m

Actueel weer

Dit bericht is 32 minuten geleden gemaakt, om 05:30 UTC
Wind 3 kt uit het noordwesten
Temperatuur 20°C
Vochtigheid 83%
Druk 1012 hPa
Zicht 10 km of meer
Weinig wolken op 2500 ft
Weinig wolken op 3500 ft, Stapelwolken.

METAR: LCLK 240530Z 31003KT 9999 FEW025 FEW035TCU 20/17 Q1012 NOSIG

Tijdstip: 09:02 (06:02 UTC)

Verwachting

Dit bericht is 32 minuten geleden gemaakt, om 05:30 UTC
Verwachting geldig van 24 om 06 UTC tot 25 om 06 UTC
Wind 6 kt uit het noordwesten
Zicht 10 km of meer
Verspreide wolken op 3000 ft
Wijzigt naar
van 24 om 08 UTC tot 24 om 12 UTC
Wind 13 kt uit het zuidzuidwesten

TAF: LCLK 240530Z 2406/2506 31006KT 9999 SCT030 BECMG 2408/2412 20013KT

Waarnemingen en weersverwachtingen van meer dan 4000 vliegvelden (METAR en TAF).

De beschikbare stations zijn de gele en rode punten op de kaart.

Ga met uw muis naar het station om de naam te zien.

Klik dan om waarnemingen en weersverwachtingen te zien.

kaart wijzigen: klik op de groene knoppen met een zwart kruis om in te zoomen, op de groene knop met een streepje om uit te zoomen of op de groene pijlen voor aangrenzende kaarten.


METAR-TAF: